sensor_id;sensor_type;location;lat;lon;timestamp;pressure;altitude;pressure_sealevel;temperature;humidity
11339;BME280;5724;42.684;23.252;2023-02-22T00:00:12;94314.94;;;10.23;41.94
11339;BME280;5724;42.684;23.252;2023-02-22T00:02:47;94315.66;;;10.04;43.02
11339;BME280;5724;42.684;23.252;2023-02-22T00:05:17;94321.97;;;9.58;44.17
11339;BME280;5724;42.684;23.252;2023-02-22T00:07:47;94315.78;;;9.45;44.64
11339;BME280;5724;42.684;23.252;2023-02-22T00:10:14;94316.13;;;9.12;45.71
11339;BME280;5724;42.684;23.252;2023-02-22T00:12:46;94322.41;;;8.84;46.50
11339;BME280;5724;42.684;23.252;2023-02-22T00:15:14;94322.72;;;8.67;47.51
11339;BME280;5724;42.684;23.252;2023-02-22T00:17:40;94315.50;;;8.59;47.46
11339;BME280;5724;42.684;23.252;2023-02-22T00:20:06;94315.31;;;8.52;47.89
11339;BME280;5724;42.684;23.252;2023-02-22T00:22:32;94303.19;;;8.49;48.07
11339;BME280;5724;42.684;23.252;2023-02-22T00:24:58;94320.75;;;8.52;47.95
11339;BME280;5724;42.684;23.252;2023-02-22T00:27:23;94313.44;;;8.56;47.85
11339;BME280;5724;42.684;23.252;2023-02-22T00:29:49;94315.69;;;8.66;47.97
11339;BME280;5724;42.684;23.252;2023-02-22T00:32:15;94317.25;;;8.67;48.03
11339;BME280;5724;42.684;23.252;2023-02-22T00:34:40;94304.28;;;8.48;48.53
11339;BME280;5724;42.684;23.252;2023-02-22T00:37:09;94302.47;;;8.52;48.08
11339;BME280;5724;42.684;23.252;2023-02-22T00:39:34;94313.09;;;8.57;48.56
11339;BME280;5724;42.684;23.252;2023-02-22T00:42:00;94304.25;;;8.60;48.43
11339;BME280;5724;42.684;23.252;2023-02-22T00:44:26;94297.56;;;8.58;48.87
11339;BME280;5724;42.684;23.252;2023-02-22T00:46:51;94284.00;;;8.46;48.86
11339;BME280;5724;42.684;23.252;2023-02-22T00:49:17;94292.81;;;8.55;49.18
11339;BME280;5724;42.684;23.252;2023-02-22T00:51:43;94291.47;;;8.49;48.41
11339;BME280;5724;42.684;23.252;2023-02-22T00:54:08;94283.22;;;8.45;48.42
11339;BME280;5724;42.684;23.252;2023-02-22T00:56:35;94284.78;;;8.46;48.30
11339;BME280;5724;42.684;23.252;2023-02-22T00:59:02;94282.31;;;8.41;47.93
11339;BME280;5724;42.684;23.252;2023-02-22T01:01:28;94280.63;;;8.37;48.32
11339;BME280;5724;42.684;23.252;2023-02-22T01:03:54;94277.78;;;8.33;48.21
11339;BME280;5724;42.684;23.252;2023-02-22T01:06:20;94284.59;;;8.39;47.75
11339;BME280;5724;42.684;23.252;2023-02-22T01:08:47;94275.84;;;8.46;47.43
11339;BME280;5724;42.684;23.252;2023-02-22T01:11:14;94283.28;;;8.49;47.25
11339;BME280;5724;42.684;23.252;2023-02-22T01:13:40;94274.91;;;8.54;47.43
11339;BME280;5724;42.684;23.252;2023-02-22T01:16:06;94277.19;;;8.52;47.09
11339;BME280;5724;42.684;23.252;2023-02-22T01:18:35;94270.38;;;8.46;46.98
11339;BME280;5724;42.684;23.252;2023-02-22T01:21:02;94271.44;;;8.41;47.16
11339;BME280;5724;42.684;23.252;2023-02-22T01:23:28;94264.66;;;8.35;47.49
11339;BME280;5724;42.684;23.252;2023-02-22T01:25:53;94268.47;;;8.34;47.57
11339;BME280;5724;42.684;23.252;2023-02-22T01:28:19;94266.66;;;8.38;47.57
11339;BME280;5724;42.684;23.252;2023-02-22T01:30:47;94264.41;;;8.40;47.25
11339;BME280;5724;42.684;23.252;2023-02-22T01:33:13;94268.88;;;8.48;46.89
11339;BME280;5724;42.684;23.252;2023-02-22T01:35:41;94259.16;;;8.47;47.21
11339;BME280;5724;42.684;23.252;2023-02-22T01:38:08;94269.72;;;8.65;46.83
11339;BME280;5724;42.684;23.252;2023-02-22T01:40:37;94271.75;;;8.68;46.79
11339;BME280;5724;42.684;23.252;2023-02-22T01:43:28;94266.06;;;8.73;46.89
11339;BME280;5724;42.684;23.252;2023-02-22T01:46:02;94274.59;;;8.71;47.44
11339;BME280;5724;42.684;23.252;2023-02-22T01:48:37;94263.50;;;8.64;47.97
11339;BME280;5724;42.684;23.252;2023-02-22T01:51:08;94277.22;;;8.40;49.16
11339;BME280;5724;42.684;23.252;2023-02-22T01:53:54;94278.75;;;8.13;49.06
11339;BME280;5724;42.684;23.252;2023-02-22T01:56:22;94280.88;;;7.30;51.04
11339;BME280;5724;42.684;23.252;2023-02-22T01:58:57;94281.22;;;7.29;51.40
11339;BME280;5724;42.684;23.252;2023-02-22T02:01:24;94272.69;;;6.81;52.59
11339;BME280;5724;42.684;23.252;2023-02-22T02:03:54;94258.03;;;6.62;54.34
11339;BME280;5724;42.684;23.252;2023-02-22T02:06:22;94277.13;;;6.53;54.91
11339;BME280;5724;42.684;23.252;2023-02-22T02:09:02;94269.47;;;6.34;54.60
11339;BME280;5724;42.684;23.252;2023-02-22T02:11:28;94269.16;;;6.36;55.18
11339;BME280;5724;42.684;23.252;2023-02-22T02:13:56;94270.94;;;6.31;55.06
11339;BME280;5724;42.684;23.252;2023-02-22T02:16:25;94269.38;;;6.30;55.67
11339;BME280;5724;42.684;23.252;2023-02-22T02:18:52;94264.19;;;6.38;55.16
11339;BME280;5724;42.684;23.252;2023-02-22T02:30:33;94276.28;;;6.73;54.92
11339;BME280;5724;42.684;23.252;2023-02-22T02:33:47;94282.59;;;6.65;54.56
11339;BME280;5724;42.684;23.252;2023-02-22T02:36:03;94280.28;;;6.55;55.13
11339;BME280;5724;42.684;23.252;2023-02-22T02:38:40;94294.81;;;6.59;55.21
11339;BME280;5724;42.684;23.252;2023-02-22T02:41:26;94285.78;;;6.67;55.29
11339;BME280;5724;42.684;23.252;2023-02-22T02:44:10;94291.16;;;6.55;55.09
11339;BME280;5724;42.684;23.252;2023-02-22T02:46:54;94290.41;;;6.67;54.61
11339;BME280;5724;42.684;23.252;2023-02-22T02:49:28;94286.22;;;6.69;55.57
11339;BME280;5724;42.684;23.252;2023-02-22T02:51:56;94287.94;;;6.74;55.21
11339;BME280;5724;42.684;23.252;2023-02-22T02:54:23;94295.66;;;6.84;55.04
11339;BME280;5724;42.684;23.252;2023-02-22T02:56:49;94256.88;;;6.50;55.63
11339;BME280;5724;42.684;23.252;2023-02-22T02:59:31;94297.09;;;6.69;55.86
11339;BME280;5724;42.684;23.252;2023-02-22T03:05:10;94294.81;;;6.59;55.74
11339;BME280;5724;42.684;23.252;2023-02-22T03:07:50;94294.72;;;6.68;55.97
11339;BME280;5724;42.684;23.252;2023-02-22T03:10:42;94296.16;;;6.65;56.18
11339;BME280;5724;42.684;23.252;2023-02-22T03:13:14;94299.81;;;6.69;55.11
11339;BME280;5724;42.684;23.252;2023-02-22T03:15:59;94295.06;;;6.66;56.08
11339;BME280;5724;42.684;23.252;2023-02-22T03:18:34;94293.50;;;6.77;54.99
11339;BME280;5724;42.684;23.252;2023-02-22T03:21:17;94295.97;;;6.82;55.25
11339;BME280;5724;42.684;23.252;2023-02-22T03:24:06;94294.50;;;6.73;54.61
11339;BME280;5724;42.684;23.252;2023-02-22T03:26:42;94295.09;;;6.78;54.53
11339;BME280;5724;42.684;23.252;2023-02-22T03:29:11;94292.03;;;6.80;54.89
11339;BME280;5724;42.684;23.252;2023-02-22T03:31:45;94295.00;;;6.87;54.69
11339;BME280;5724;42.684;23.252;2023-02-22T03:34:15;94281.19;;;6.92;54.29
11339;BME280;5724;42.684;23.252;2023-02-22T03:36:51;94292.44;;;7.15;53.45
11339;BME280;5724;42.684;23.252;2023-02-22T03:39:22;94290.63;;;7.31;52.63
11339;BME280;5724;42.684;23.252;2023-02-22T03:42:05;94295.41;;;7.46;52.13
11339;BME280;5724;42.684;23.252;2023-02-22T03:44:33;94287.34;;;7.50;52.56
11339;BME280;5724;42.684;23.252;2023-02-22T03:47:05;94291.53;;;7.60;51.81
11339;BME280;5724;42.684;23.252;2023-02-22T03:52:09;94293.78;;;7.82;51.33
11339;BME280;5724;42.684;23.252;2023-02-22T03:54:37;94298.84;;;7.96;50.71
11339;BME280;5724;42.684;23.252;2023-02-22T03:57:09;94301.91;;;8.07;50.34
11339;BME280;5724;42.684;23.252;2023-02-22T03:59:36;94292.09;;;8.18;50.08
11339;BME280;5724;42.684;23.252;2023-02-22T04:02:02;94294.34;;;8.28;49.89
11339;BME280;5724;42.684;23.252;2023-02-22T04:04:28;94291.53;;;8.37;49.52
11339;BME280;5724;42.684;23.252;2023-02-22T04:06:53;94275.97;;;8.37;49.54
11339;BME280;5724;42.684;23.252;2023-02-22T04:09:19;94288.41;;;8.50;49.04
11339;BME280;5724;42.684;23.252;2023-02-22T04:11:45;94291.00;;;8.59;48.72
11339;BME280;5724;42.684;23.252;2023-02-22T04:14:11;94288.34;;;8.63;48.71
11339;BME280;5724;42.684;23.252;2023-02-22T04:16:36;94293.66;;;8.71;48.38
11339;BME280;5724;42.684;23.252;2023-02-22T04:19:02;94286.72;;;8.74;48.50
11339;BME280;5724;42.684;23.252;2023-02-22T04:21:27;94294.09;;;8.73;48.15
11339;BME280;5724;42.684;23.252;2023-02-22T04:23:53;94292.88;;;8.71;48.41
11339;BME280;5724;42.684;23.252;2023-02-22T04:26:18;94286.16;;;8.68;48.21
11339;BME280;5724;42.684;23.252;2023-02-22T04:28:44;94297.81;;;8.81;48.18
11339;BME280;5724;42.684;23.252;2023-02-22T04:31:09;94292.66;;;8.92;47.73
11339;BME280;5724;42.684;23.252;2023-02-22T04:33:35;94301.25;;;8.94;47.59
11339;BME280;5724;42.684;23.252;2023-02-22T04:36:00;94296.78;;;9.01;47.40
11339;BME280;5724;42.684;23.252;2023-02-22T04:38:26;94280.59;;;8.93;47.19
11339;BME280;5724;42.684;23.252;2023-02-22T04:40:52;94278.00;;;8.68;49.32
11339;BME280;5724;42.684;23.252;2023-02-22T04:43:19;94294.44;;;8.72;49.88
11339;BME280;5724;42.684;23.252;2023-02-22T04:45:44;94277.84;;;8.21;51.75
11339;BME280;5724;42.684;23.252;2023-02-22T04:48:10;94287.28;;;7.99;52.40
11339;BME280;5724;42.684;23.252;2023-02-22T04:50:35;94296.13;;;7.96;52.46
11339;BME280;5724;42.684;23.252;2023-02-22T04:53:01;94283.03;;;7.73;52.88
11339;BME280;5724;42.684;23.252;2023-02-22T04:55:26;94295.25;;;7.43;54.01
11339;BME280;5724;42.684;23.252;2023-02-22T04:57:53;94296.41;;;7.17;55.10
11339;BME280;5724;42.684;23.252;2023-02-22T05:00:19;94273.59;;;6.85;55.90
11339;BME280;5724;42.684;23.252;2023-02-22T05:02:48;94291.13;;;6.76;56.47
11339;BME280;5724;42.684;23.252;2023-02-22T05:05:16;94288.22;;;6.48;57.23
11339;BME280;5724;42.684;23.252;2023-02-22T05:07:41;94299.59;;;6.41;57.83
11339;BME280;5724;42.684;23.252;2023-02-22T05:10:08;94300.47;;;6.12;58.14
11339;BME280;5724;42.684;23.252;2023-02-22T05:12:34;94307.25;;;5.77;59.29
11339;BME280;5724;42.684;23.252;2023-02-22T05:15:00;94304.13;;;5.87;59.47
11339;BME280;5724;42.684;23.252;2023-02-22T05:17:25;94314.16;;;5.65;60.66
11339;BME280;5724;42.684;23.252;2023-02-22T05:19:51;94319.53;;;5.44;60.40
11339;BME280;5724;42.684;23.252;2023-02-22T05:22:16;94317.91;;;5.23;60.87
11339;BME280;5724;42.684;23.252;2023-02-22T05:24:42;94314.56;;;5.17;61.70
11339;BME280;5724;42.684;23.252;2023-02-22T05:27:08;94327.03;;;5.01;61.97
11339;BME280;5724;42.684;23.252;2023-02-22T05:29:34;94276.34;;;4.72;61.90
11339;BME280;5724;42.684;23.252;2023-02-22T05:31:59;94328.94;;;5.09;62.28
11339;BME280;5724;42.684;23.252;2023-02-22T05:34:26;94333.84;;;5.15;61.81
11339;BME280;5724;42.684;23.252;2023-02-22T05:36:52;94336.88;;;5.23;61.32
11339;BME280;5724;42.684;23.252;2023-02-22T05:39:18;94332.66;;;5.34;61.25
11339;BME280;5724;42.684;23.252;2023-02-22T05:41:43;94337.75;;;5.35;61.95
11339;BME280;5724;42.684;23.252;2023-02-22T05:44:09;94337.53;;;5.49;60.91
11339;BME280;5724;42.684;23.252;2023-02-22T05:46:34;94342.16;;;5.49;61.62
11339;BME280;5724;42.684;23.252;2023-02-22T05:49:00;94345.47;;;5.54;62.13
11339;BME280;5724;42.684;23.252;2023-02-22T05:51:26;94345.56;;;5.66;61.97
11339;BME280;5724;42.684;23.252;2023-02-22T05:53:51;94348.09;;;5.71;61.48
11339;BME280;5724;42.684;23.252;2023-02-22T05:56:22;94349.97;;;5.80;61.95
11339;BME280;5724;42.684;23.252;2023-02-22T05:58:47;94349.59;;;5.90;61.15
11339;BME280;5724;42.684;23.252;2023-02-22T06:01:13;94353.88;;;5.99;61.18
11339;BME280;5724;42.684;23.252;2023-02-22T06:03:38;94313.13;;;5.79;61.31
11339;BME280;5724;42.684;23.252;2023-02-22T06:06:04;94357.78;;;6.11;61.15
11339;BME280;5724;42.684;23.252;2023-02-22T06:08:48;94355.47;;;6.21;60.60
11339;BME280;5724;42.684;23.252;2023-02-22T06:11:14;94352.81;;;6.34;59.30
11339;BME280;5724;42.684;23.252;2023-02-22T06:13:39;94355.34;;;6.39;58.72
11339;BME280;5724;42.684;23.252;2023-02-22T06:16:05;94364.19;;;6.48;58.31
11339;BME280;5724;42.684;23.252;2023-02-22T06:18:31;94360.28;;;6.37;58.90
11339;BME280;5724;42.684;23.252;2023-02-22T06:20:58;94360.81;;;6.51;58.39
11339;BME280;5724;42.684;23.252;2023-02-22T06:23:24;94361.41;;;6.56;59.12
11339;BME280;5724;42.684;23.252;2023-02-22T06:25:49;94363.03;;;6.70;58.78
11339;BME280;5724;42.684;23.252;2023-02-22T06:28:15;94364.63;;;6.71;57.53
11339;BME280;5724;42.684;23.252;2023-02-22T06:30:40;94360.06;;;6.63;58.16
11339;BME280;5724;42.684;23.252;2023-02-22T06:33:09;94370.81;;;6.92;57.72
11339;BME280;5724;42.684;23.252;2023-02-22T06:35:35;94341.97;;;7.00;56.00
11339;BME280;5724;42.684;23.252;2023-02-22T06:38:01;94355.75;;;7.28;55.07
11339;BME280;5724;42.684;23.252;2023-02-22T06:40:26;94357.00;;;7.42;55.01
11339;BME280;5724;42.684;23.252;2023-02-22T06:42:54;94351.47;;;7.63;54.68
11339;BME280;5724;42.684;23.252;2023-02-22T06:45:20;94343.88;;;7.69;54.72
11339;BME280;5724;42.684;23.252;2023-02-22T06:47:46;94357.22;;;7.98;53.90
11339;BME280;5724;42.684;23.252;2023-02-22T06:52:48;94350.22;;;7.73;54.04
11339;BME280;5724;42.684;23.252;2023-02-22T06:55:22;94354.06;;;7.60;54.30
11339;BME280;5724;42.684;23.252;2023-02-22T06:57:48;94356.53;;;7.53;54.85
11339;BME280;5724;42.684;23.252;2023-02-22T07:00:16;94362.88;;;7.32;55.11
11339;BME280;5724;42.684;23.252;2023-02-22T07:02:42;94367.00;;;7.63;55.07
11339;BME280;5724;42.684;23.252;2023-02-22T07:05:09;94364.84;;;7.68;54.71
11339;BME280;5724;42.684;23.252;2023-02-22T07:07:35;94364.50;;;7.45;54.89
11339;BME280;5724;42.684;23.252;2023-02-22T07:10:04;94355.00;;;7.64;54.89
11339;BME280;5724;42.684;23.252;2023-02-22T07:12:30;94356.22;;;7.91;54.42
11339;BME280;5724;42.684;23.252;2023-02-22T07:14:56;94367.06;;;8.15;53.71
11339;BME280;5724;42.684;23.252;2023-02-22T07:17:21;94355.78;;;8.01;53.44
11339;BME280;5724;42.684;23.252;2023-02-22T07:19:47;94366.72;;;8.17;53.15
11339;BME280;5724;42.684;23.252;2023-02-22T07:22:12;94367.88;;;8.16;53.34
11339;BME280;5724;42.684;23.252;2023-02-22T07:24:37;94363.75;;;8.34;53.14
11339;BME280;5724;42.684;23.252;2023-02-22T07:27:04;94365.59;;;8.42;54.11
11339;BME280;5724;42.684;23.252;2023-02-22T07:29:30;94363.91;;;8.66;53.27
11339;BME280;5724;42.684;23.252;2023-02-22T07:31:56;94364.22;;;9.04;52.65
11339;BME280;5724;42.684;23.252;2023-02-22T07:34:22;94364.88;;;9.29;51.58
11339;BME280;5724;42.684;23.252;2023-02-22T07:36:47;94350.28;;;9.53;50.85
11339;BME280;5724;42.684;23.252;2023-02-22T07:39:13;94365.44;;;9.66;50.38
11339;BME280;5724;42.684;23.252;2023-02-22T07:41:38;94365.78;;;9.96;49.99
11339;BME280;5724;42.684;23.252;2023-02-22T07:44:04;94359.75;;;10.22;49.07
11339;BME280;5724;42.684;23.252;2023-02-22T07:46:29;94360.53;;;10.23;49.64
11339;BME280;5724;42.684;23.252;2023-02-22T07:48:55;94352.91;;;10.48;48.69
11339;BME280;5724;42.684;23.252;2023-02-22T07:51:20;94358.53;;;10.55;48.59
11339;BME280;5724;42.684;23.252;2023-02-22T07:53:47;94350.50;;;10.81;48.01
11339;BME280;5724;42.684;23.252;2023-02-22T07:56:12;94345.25;;;10.92;47.97
11339;BME280;5724;42.684;23.252;2023-02-22T07:58:38;94344.66;;;11.02;47.61
11339;BME280;5724;42.684;23.252;2023-02-22T08:01:03;94340.38;;;10.82;47.16
11339;BME280;5724;42.684;23.252;2023-02-22T08:03:31;94348.25;;;10.87;47.49
11339;BME280;5724;42.684;23.252;2023-02-22T08:06:01;94344.13;;;11.16;47.25
11339;BME280;5724;42.684;23.252;2023-02-22T08:08:27;94343.13;;;11.47;46.40
11339;BME280;5724;42.684;23.252;2023-02-22T08:10:53;94344.84;;;11.32;46.36
11339;BME280;5724;42.684;23.252;2023-02-22T08:13:20;94343.66;;;11.10;46.72
11339;BME280;5724;42.684;23.252;2023-02-22T08:15:47;94340.72;;;11.42;46.41
11339;BME280;5724;42.684;23.252;2023-02-22T08:18:15;94345.25;;;11.57;46.12
11339;BME280;5724;42.684;23.252;2023-02-22T08:20:44;94336.34;;;11.60;46.24
11339;BME280;5724;42.684;23.252;2023-02-22T08:23:11;94341.03;;;11.83;46.22
11339;BME280;5724;42.684;23.252;2023-02-22T08:25:37;94338.16;;;11.98;45.22
11339;BME280;5724;42.684;23.252;2023-02-22T08:28:11;94342.53;;;12.29;45.20
11339;BME280;5724;42.684;23.252;2023-02-22T08:30:40;94342.38;;;12.45;44.76
11339;BME280;5724;42.684;23.252;2023-02-22T08:33:08;94340.34;;;12.69;44.30
11339;BME280;5724;42.684;23.252;2023-02-22T08:35:35;94326.38;;;12.81;44.29
11339;BME280;5724;42.684;23.252;2023-02-22T08:38:03;94333.16;;;12.90;44.00
11339;BME280;5724;42.684;23.252;2023-02-22T08:40:31;94336.41;;;13.00;43.85
11339;BME280;5724;42.684;23.252;2023-02-22T08:42:57;94334.09;;;12.72;43.59
11339;BME280;5724;42.684;23.252;2023-02-22T08:45:23;94336.56;;;12.80;44.23
11339;BME280;5724;42.684;23.252;2023-02-22T08:47:49;94325.88;;;12.72;44.51
11339;BME280;5724;42.684;23.252;2023-02-22T08:50:22;94334.97;;;12.79;44.04
11339;BME280;5724;42.684;23.252;2023-02-22T08:52:50;94331.19;;;12.91;43.92
11339;BME280;5724;42.684;23.252;2023-02-22T08:55:19;94331.25;;;13.28;43.45
11339;BME280;5724;42.684;23.252;2023-02-22T08:57:45;94329.34;;;13.32;43.26
11339;BME280;5724;42.684;23.252;2023-02-22T09:00:11;94330.66;;;13.12;43.70
11339;BME280;5724;42.684;23.252;2023-02-22T09:02:36;94331.69;;;13.00;44.50
11339;BME280;5724;42.684;23.252;2023-02-22T09:05:02;94327.06;;;13.04;44.12
11339;BME280;5724;42.684;23.252;2023-02-22T09:07:30;94338.69;;;13.24;44.13
11339;BME280;5724;42.684;23.252;2023-02-22T09:09:55;94324.69;;;13.36;43.68
11339;BME280;5724;42.684;23.252;2023-02-22T09:12:21;94329.38;;;13.36;43.75
11339;BME280;5724;42.684;23.252;2023-02-22T09:14:46;94328.00;;;13.53;43.69
11339;BME280;5724;42.684;23.252;2023-02-22T09:17:12;94333.47;;;13.53;43.09
11339;BME280;5724;42.684;23.252;2023-02-22T09:19:37;94333.13;;;13.21;43.39
11339;BME280;5724;42.684;23.252;2023-02-22T09:22:02;94323.78;;;13.25;43.42
11339;BME280;5724;42.684;23.252;2023-02-22T09:24:28;94324.00;;;13.46;43.34
11339;BME280;5724;42.684;23.252;2023-02-22T09:26:53;94321.84;;;13.66;43.20
11339;BME280;5724;42.684;23.252;2023-02-22T09:29:24;94329.22;;;13.59;42.99
11339;BME280;5724;42.684;23.252;2023-02-22T09:31:51;94323.56;;;13.85;42.67
11339;BME280;5724;42.684;23.252;2023-02-22T09:34:18;94318.69;;;13.68;42.31
11339;BME280;5724;42.684;23.252;2023-02-22T09:36:45;94309.28;;;13.65;42.04
11339;BME280;5724;42.684;23.252;2023-02-22T09:39:13;94327.00;;;13.71;42.34
11339;BME280;5724;42.684;23.252;2023-02-22T09:45:23;94315.06;;;14.01;41.96
11339;BME280;5724;42.684;23.252;2023-02-22T09:47:55;94308.81;;;14.08;41.51
11339;BME280;5724;42.684;23.252;2023-02-22T09:50:28;94308.81;;;14.04;41.60
11339;BME280;5724;42.684;23.252;2023-02-22T09:55:42;94310.44;;;14.16;41.81
11339;BME280;5724;42.684;23.252;2023-02-22T09:58:33;94308.34;;;14.50;41.35
11339;BME280;5724;42.684;23.252;2023-02-22T10:06:14;94295.91;;;14.77;40.33
11339;BME280;5724;42.684;23.252;2023-02-22T10:08:42;94288.41;;;14.09;41.92
11339;BME280;5724;42.684;23.252;2023-02-22T10:16:37;94270.38;;;14.80;40.98
11339;BME280;5724;42.684;23.252;2023-02-22T10:19:06;94282.66;;;15.15;39.21
11339;BME280;5724;42.684;23.252;2023-02-22T10:27:14;94252.84;;;15.35;39.01
11339;BME280;5724;42.684;23.252;2023-02-22T10:29:45;94261.09;;;15.31;38.30
11339;BME280;5724;42.684;23.252;2023-02-22T10:32:26;94250.09;;;15.45;37.97
11339;BME280;5724;42.684;23.252;2023-02-22T10:34:53;94241.41;;;15.29;38.03
11339;BME280;5724;42.684;23.252;2023-02-22T10:37:27;94237.91;;;15.39;38.45
11339;BME280;5724;42.684;23.252;2023-02-22T10:40:10;94239.09;;;15.45;38.19
11339;BME280;5724;42.684;23.252;2023-02-22T10:42:36;94235.19;;;15.68;37.62
11339;BME280;5724;42.684;23.252;2023-02-22T10:45:02;94229.25;;;15.37;37.38
11339;BME280;5724;42.684;23.252;2023-02-22T10:47:28;94235.53;;;15.27;37.80
11339;BME280;5724;42.684;23.252;2023-02-22T10:49:58;94215.09;;;15.28;37.14
11339;BME280;5724;42.684;23.252;2023-02-22T10:52:26;94219.41;;;15.26;37.61
11339;BME280;5724;42.684;23.252;2023-02-22T10:54:54;94220.59;;;15.28;37.99
11339;BME280;5724;42.684;23.252;2023-02-22T10:57:23;94209.59;;;15.35;37.83
11339;BME280;5724;42.684;23.252;2023-02-22T10:59:49;94204.47;;;15.59;37.74
11339;BME280;5724;42.684;23.252;2023-02-22T11:04:51;94206.44;;;15.55;37.59
11339;BME280;5724;42.684;23.252;2023-02-22T11:14:51;94199.78;;;15.66;37.31
11339;BME280;5724;42.684;23.252;2023-02-22T11:17:23;94204.09;;;15.85;36.72
11339;BME280;5724;42.684;23.252;2023-02-22T11:19:51;94186.38;;;15.86;36.33
11339;BME280;5724;42.684;23.252;2023-02-22T11:22:26;94180.44;;;16.06;36.23
11339;BME280;5724;42.684;23.252;2023-02-22T11:24:58;94175.53;;;16.56;35.52
11339;BME280;5724;42.684;23.252;2023-02-22T11:30:26;94180.44;;;16.06;35.26
11339;BME280;5724;42.684;23.252;2023-02-22T11:33:38;94167.78;;;16.19;35.47
11339;BME280;5724;42.684;23.252;2023-02-22T11:35:55;94158.28;;;16.38;34.81
11339;BME280;5724;42.684;23.252;2023-02-22T11:38:28;94163.78;;;16.38;34.78
11339;BME280;5724;42.684;23.252;2023-02-22T11:41:15;94170.47;;;16.40;34.22
11339;BME280;5724;42.684;23.252;2023-02-22T11:43:50;94160.66;;;16.28;34.74
11339;BME280;5724;42.684;23.252;2023-02-22T11:46:18;94146.50;;;16.26;34.88
11339;BME280;5724;42.684;23.252;2023-02-22T11:48:55;94156.97;;;16.64;34.00
11339;BME280;5724;42.684;23.252;2023-02-22T11:51:45;94157.13;;;16.28;34.48
11339;BME280;5724;42.684;23.252;2023-02-22T12:08:20;94146.88;;;16.32;33.13
11339;BME280;5724;42.684;23.252;2023-02-22T12:13:49;94129.97;;;16.19;33.58
11339;BME280;5724;42.684;23.252;2023-02-22T12:16:20;94125.59;;;16.36;33.81
11339;BME280;5724;42.684;23.252;2023-02-22T12:21:43;94120.44;;;16.45;33.47
11339;BME280;5724;42.684;23.252;2023-02-22T12:26:43;94130.72;;;17.07;32.89
11339;BME280;5724;42.684;23.252;2023-02-22T12:34:29;94117.91;;;16.79;32.61
11339;BME280;5724;42.684;23.252;2023-02-22T12:41:58;94106.72;;;16.31;34.07
11339;BME280;5724;42.684;23.252;2023-02-22T12:44:34;94109.13;;;16.11;34.47
11339;BME280;5724;42.684;23.252;2023-02-22T12:47:04;94105.66;;;16.03;34.38
11339;BME280;5724;42.684;23.252;2023-02-22T12:55:24;94111.75;;;16.50;33.03
11339;BME280;5724;42.684;23.252;2023-02-22T12:57:55;94105.81;;;16.52;32.75
11339;BME280;5724;42.684;23.252;2023-02-22T13:00:40;94102.00;;;16.21;33.28
11339;BME280;5724;42.684;23.252;2023-02-22T13:03:45;94110.38;;;16.03;33.32
11339;BME280;5724;42.684;23.252;2023-02-22T13:06:52;94098.97;;;15.90;33.24
11339;BME280;5724;42.684;23.252;2023-02-22T13:09:32;94096.97;;;16.01;33.23
11339;BME280;5724;42.684;23.252;2023-02-22T13:15:39;94089.28;;;16.52;32.63
11339;BME280;5724;42.684;23.252;2023-02-22T13:18:34;94096.00;;;16.44;33.17
11339;BME280;5724;42.684;23.252;2023-02-22T13:21:12;94084.53;;;16.52;32.98
11339;BME280;5724;42.684;23.252;2023-02-22T13:23:54;94105.41;;;16.53;33.05
11339;BME280;5724;42.684;23.252;2023-02-22T13:26:44;94090.84;;;16.49;32.92
11339;BME280;5724;42.684;23.252;2023-02-22T13:29:29;94070.75;;;16.52;33.00
11339;BME280;5724;42.684;23.252;2023-02-22T13:32:03;94081.84;;;16.42;33.70
11339;BME280;5724;42.684;23.252;2023-02-22T13:37:48;94086.22;;;16.28;34.28
11339;BME280;5724;42.684;23.252;2023-02-22T13:54:15;94078.00;;;16.25;34.57
11339;BME280;5724;42.684;23.252;2023-02-22T13:56:46;94079.81;;;16.49;34.50
11339;BME280;5724;42.684;23.252;2023-02-22T13:59:32;94084.34;;;16.08;34.92
11339;BME280;5724;42.684;23.252;2023-02-22T14:01:59;94075.59;;;16.34;34.70
11339;BME280;5724;42.684;23.252;2023-02-22T14:06:58;94069.97;;;16.52;34.78
11339;BME280;5724;42.684;23.252;2023-02-22T14:09:52;94078.75;;;16.29;34.60
11339;BME280;5724;42.684;23.252;2023-02-22T14:17:45;94068.00;;;16.52;34.96
11339;BME280;5724;42.684;23.252;2023-02-22T14:22:42;94076.97;;;16.64;35.13
11339;BME280;5724;42.684;23.252;2023-02-22T14:27:57;94044.91;;;16.25;35.92
11339;BME280;5724;42.684;23.252;2023-02-22T14:30:25;94070.50;;;16.25;36.00
11339;BME280;5724;42.684;23.252;2023-02-22T14:32:51;94079.22;;;16.10;36.06
11339;BME280;5724;42.684;23.252;2023-02-22T14:35:18;94070.09;;;16.27;36.30
11339;BME280;5724;42.684;23.252;2023-02-22T14:37:50;94068.53;;;16.26;36.64
11339;BME280;5724;42.684;23.252;2023-02-22T14:42:47;94073.28;;;16.18;36.80
11339;BME280;5724;42.684;23.252;2023-02-22T14:45:28;94071.78;;;15.99;37.21
11339;BME280;5724;42.684;23.252;2023-02-22T14:50:58;94069.44;;;15.98;37.32
11339;BME280;5724;42.684;23.252;2023-02-22T14:53:37;94061.59;;;15.89;36.47
11339;BME280;5724;42.684;23.252;2023-02-22T14:56:07;94073.44;;;15.79;37.04
11339;BME280;5724;42.684;23.252;2023-02-22T14:58:42;94075.78;;;15.84;36.91
11339;BME280;5724;42.684;23.252;2023-02-22T15:01:21;94073.81;;;15.88;36.79
11339;BME280;5724;42.684;23.252;2023-02-22T15:03:47;94069.91;;;15.75;37.40
11339;BME280;5724;42.684;23.252;2023-02-22T15:06:22;94070.69;;;15.72;38.12
11339;BME280;5724;42.684;23.252;2023-02-22T15:09:06;94086.84;;;15.66;38.38
11339;BME280;5724;42.684;23.252;2023-02-22T15:11:32;94077.81;;;15.55;38.62
11339;BME280;5724;42.684;23.252;2023-02-22T15:13:59;94077.84;;;15.44;39.10
11339;BME280;5724;42.684;23.252;2023-02-22T15:16:27;94080.94;;;15.57;38.92
11339;BME280;5724;42.684;23.252;2023-02-22T15:18:57;94079.41;;;15.45;38.96
11339;BME280;5724;42.684;23.252;2023-02-22T15:21:26;94075.47;;;15.32;39.32
11339;BME280;5724;42.684;23.252;2023-02-22T15:23:55;94073.13;;;15.38;39.40
11339;BME280;5724;42.684;23.252;2023-02-22T15:28:55;94078.63;;;15.20;39.63
11339;BME280;5724;42.684;23.252;2023-02-22T15:31:39;94071.56;;;15.01;40.23